Time;durP1;ratioP1;P1;durP2;ratioP2;P2;SDS_P1;SDS_P2;PMS_P1;PMS_P2;Temp;Humidity;BMP_temperature;BMP_pressure;BME280_temperature;BME280_humidity;BME280_pressure;Samples;Min_cycle;Max_cycle;Signal;HPM_P1;HPM_P2
2022/09/26 00:01:30;;;;;;;;;;;12.10;94.30;;;;;;6119761;23;20254;-86
2022/09/26 00:03:59;;;;;;;;;;;12.00;94.40;;;;;;6121296;23;20236;-87
2022/09/26 00:06:26;;;;;;;;;;;11.80;94.50;;;;;;6120704;23;19957;-87
2022/09/26 00:08:53;;;;;;;;;;;11.80;94.30;;;;;;6120798;23;19980;-87
2022/09/26 00:11:21;;;;;;;;;;;11.60;94.80;;;;;;6120178;23;19984;-86
2022/09/26 00:13:50;;;;;;;;;;;11.60;95.10;;;;;;6119358;23;19924;-87
2022/09/26 00:16:17;;;;;;;;;;;11.40;96.20;;;;;;6118728;23;19923;-86
2022/09/26 00:18:47;;;;;;;;;;;11.50;95.80;;;;;;6094796;23;19992;-86
2022/09/26 00:21:14;;;;;;;;;;;11.50;95.70;;;;;;6096286;23;19936;-86
2022/09/26 00:23:41;;;;;;;;;;;11.50;96.60;;;;;;6119815;23;19917;-86
2022/09/26 00:26:07;;;;;;;;;;;11.40;96.20;;;;;;6120200;23;19992;-86
2022/09/26 00:28:34;;;;;;;;;;;11.40;96.00;;;;;;6119269;23;20007;-87
2022/09/26 00:31:09;;;;;;;;;;;11.50;96.00;;;;;;6120017;23;19917;-87
2022/09/26 00:33:36;;;;;;;;;;;11.50;95.80;;;;;;6117267;23;20258;-86
2022/09/26 00:36:03;;;;;;;;;;;11.50;96.20;;;;;;6119391;23;19948;-86
2022/09/26 00:38:30;;;;;;;;;;;11.40;96.00;;;;;;6119422;23;19980;-86
2022/09/26 00:40:57;;;;;;;;;;;11.40;95.70;;;;;;6119946;23;19917;-87
2022/09/26 00:43:29;;;;;;;;;;;11.40;95.80;;;;;;6095765;23;19928;-85
2022/09/26 00:46:02;;;;;;;;;;;11.40;96.10;;;;;;6118948;23;19920;-86
2022/09/26 00:48:29;;;;;;;;;;;11.40;96.70;;;;;;6119621;23;19945;-86
2022/09/26 00:50:56;;;;;;;;;;;11.40;96.20;;;;;;6119133;23;19924;-86
2022/09/26 00:53:26;;;;;;;;;;;11.40;96.70;;;;;;6119490;23;20000;-86
2022/09/26 00:55:56;;;;;;;;;;;11.30;96.80;;;;;;6118402;23;19917;-86
2022/09/26 00:58:24;;;;;;;;;;;11.30;96.70;;;;;;6119731;23;20012;-87
2022/09/26 01:00:51;;;;;;;;;;;11.30;96.60;;;;;;6095963;23;19917;-86
2022/09/26 01:03:18;;;;;;;;;;;11.30;96.30;;;;;;6120022;23;19918;-85
2022/09/26 01:05:45;;;;;;;;;;;11.10;95.90;;;;;;6118787;23;20231;-86
2022/09/26 01:08:13;;;;;;;;;;;11.10;95.80;;;;;;6119730;23;19928;-87
2022/09/26 01:10:40;;;;;;;;;;;11.00;96.50;;;;;;6094531;23;19992;-86
2022/09/26 01:13:07;;;;;;;;;;;11.00;96.50;;;;;;6119500;23;19917;-87
2022/09/26 01:15:35;;;;;;;;;;;10.90;96.90;;;;;;6118648;23;20407;-86
2022/09/26 01:18:02;;;;;;;;;;;10.80;97.30;;;;;;6119204;23;19924;-87
2022/09/26 01:20:38;;;;;;;;;;;10.80;98.50;;;;;;6095139;23;19921;-86
2022/09/26 01:23:11;;;;;;;;;;;10.80;98.60;;;;;;6095698;23;19917;-86
2022/09/26 01:25:51;;;;;;;;;;;10.80;98.70;;;;;;6119366;23;19917;-86
2022/09/26 01:28:36;;;;;;;;;;;10.80;98.40;;;;;;6118882;23;19917;-86
2022/09/26 01:31:10;;;;;;;;;;;10.80;98.20;;;;;;6118691;23;19917;-86
2022/09/26 01:33:46;;;;;;;;;;;10.70;99.10;;;;;;6119340;23;19917;-86
2022/09/26 01:36:31;;;;;;;;;;;10.70;99.90;;;;;;6118641;23;19917;-87
2022/09/26 01:39:23;;;;;;;;;;;10.70;99.50;;;;;;6118444;23;19921;-86
2022/09/26 01:41:53;;;;;;;;;;;10.70;99.20;;;;;;6118688;23;19940;-86
2022/09/26 01:44:29;;;;;;;;;;;10.60;99.60;;;;;;6065577;23;19917;-86
2022/09/26 01:46:59;;;;;;;;;;;10.60;99.50;;;;;;6065339;23;20246;-86
2022/09/26 01:49:45;;;;;;;;;;;10.70;99.10;;;;;;6065950;23;20000;-86
2022/09/26 01:52:24;;;;;;;;;;;10.80;98.90;;;;;;6065208;23;19925;-86
2022/09/26 01:55:09;;;;;;;;;;;10.80;98.60;;;;;;6066325;23;20232;-86
2022/09/26 01:57:45;;;;;;;;;;;10.70;98.40;;;;;;6106442;23;19949;-86
2022/09/26 02:00:12;;;;;;;;;;;10.70;98.60;;;;;;6118220;23;19928;-85
2022/09/26 02:02:41;;;;;;;;;;;10.70;98.40;;;;;;6119099;23;19992;-86
2022/09/26 02:05:28;;;;;;;;;;;10.60;98.30;;;;;;6118917;23;19924;-86
2022/09/26 02:08:01;;;;;;;;;;;10.60;98.00;;;;;;6118425;23;19917;-86
2022/09/26 02:10:33;;;;;;;;;;;10.60;98.00;;;;;;6119059;23;19917;-86
2022/09/26 02:13:07;;;;;;;;;;;10.60;97.90;;;;;;6118332;23;19921;-87
2022/09/26 02:15:36;;;;;;;;;;;10.60;97.50;;;;;;6119198;23;20398;-86
2022/09/26 02:18:11;;;;;;;;;;;10.50;98.20;;;;;;6095082;23;19988;-86
2022/09/26 02:20:40;;;;;;;;;;;10.50;98.00;;;;;;6096233;23;19951;-83
2022/09/26 02:23:07;;;;;;;;;;;10.40;98.40;;;;;;6117229;23;19928;-79
2022/09/26 02:25:34;;;;;;;;;;;10.30;98.30;;;;;;6117788;23;19944;-79
2022/09/26 02:28:02;;;;;;;;;;;10.30;98.20;;;;;;6117453;23;19939;-79
2022/09/26 02:30:28;;;;;;;;;;;10.30;97.90;;;;;;6117502;23;20004;-78
2022/09/26 02:32:56;;;;;;;;;;;10.30;97.50;;;;;;6092977;23;19928;-79
2022/09/26 02:38:08;;;;;;;;;;;10.10;99.40;;;;;;6093914;23;19923;-79
2022/09/26 02:40:55;;;;;;;;;;;10.10;98.60;;;;;;6117884;23;19917;-78
2022/09/26 02:43:25;;;;;;;;;;;10.10;98.30;;;;;;6115029;23;19949;-79
2022/09/26 02:46:12;;;;;;;;;;;10.20;98.40;;;;;;6118965;23;20299;-80
2022/09/26 02:48:45;;;;;;;;;;;10.10;98.40;;;;;;6050461;23;19944;-80
2022/09/26 02:51:35;;;;;;;;;;;10.10;98.90;;;;;;6096107;23;19921;-79
2022/09/26 02:54:20;;;;;;;;;;;10.00;99.70;;;;;;6086654;23;20258;-80
2022/09/26 02:56:47;;;;;;;;;;;10.00;99.90;;;;;;6117527;23;19964;-80
2022/09/26 02:59:22;;;;;;;;;;;10.00;99.80;;;;;;6118651;23;19917;-80
2022/09/26 03:01:53;;;;;;;;;;;9.90;99.80;;;;;;6094668;23;19985;-80
2022/09/26 03:04:22;;;;;;;;;;;9.90;99.90;;;;;;6117982;23;19937;-80
2022/09/26 03:06:52;;;;;;;;;;;9.90;99.90;;;;;;6094492;23;19921;-80
2022/09/26 03:09:20;;;;;;;;;;;10.00;99.90;;;;;;6093986;23;19992;-80
2022/09/26 03:11:48;;;;;;;;;;;9.90;99.90;;;;;;6094847;23;20338;-80
2022/09/26 03:14:16;;;;;;;;;;;10.00;99.90;;;;;;6118368;23;19923;-80
2022/09/26 03:16:44;;;;;;;;;;;9.90;99.90;;;;;;6117307;23;20024;-80
2022/09/26 03:19:17;;;;;;;;;;;9.90;99.90;;;;;;6118686;23;19936;-80
2022/09/26 03:21:44;;;;;;;;;;;9.80;99.90;;;;;;6119065;23;19949;-80
2022/09/26 03:24:11;;;;;;;;;;;9.80;99.90;;;;;;6120053;23;19917;-80
2022/09/26 03:26:38;;;;;;;;;;;9.80;99.90;;;;;;6119882;23;19945;-80
2022/09/26 03:29:06;;;;;;;;;;;9.80;99.90;;;;;;6119535;23;20524;-80
2022/09/26 03:31:32;;;;;;;;;;;9.80;99.90;;;;;;6119777;23;19947;-80
2022/09/26 03:33:59;;;;;;;;;;;9.80;99.90;;;;;;6094435;23;19924;-80
2022/09/26 03:36:27;;;;;;;;;;;9.80;99.90;;;;;;6119697;23;19993;-81
2022/09/26 03:38:53;;;;;;;;;;;9.90;99.90;;;;;;6118911;23;19917;-80
2022/09/26 03:41:20;;;;;;;;;;;9.90;99.90;;;;;;6097033;23;20254;-80
2022/09/26 03:43:48;;;;;;;;;;;9.80;99.90;;;;;;6094851;23;19925;-80
2022/09/26 03:46:15;;;;;;;;;;;9.80;99.90;;;;;;6119715;23;19917;-80
2022/09/26 03:48:42;;;;;;;;;;;9.90;99.90;;;;;;6118413;23;19992;-80
2022/09/26 03:51:10;;;;;;;;;;;9.90;99.90;;;;;;6119982;23;19917;-80
2022/09/26 03:53:38;;;;;;;;;;;9.80;99.90;;;;;;6119976;23;20000;-80
2022/09/26 03:56:09;;;;;;;;;;;9.80;99.90;;;;;;6096308;23;19953;-80
2022/09/26 03:58:36;;;;;;;;;;;9.80;99.90;;;;;;6119763;23;20249;-81
2022/09/26 04:01:03;;;;;;;;;;;9.90;99.90;;;;;;6119374;23;19961;-81
2022/09/26 04:03:37;;;;;;;;;;;10.00;99.90;;;;;;6119453;23;19969;-81
2022/09/26 04:06:07;;;;;;;;;;;10.10;99.90;;;;;;6118899;23;19921;-81
2022/09/26 04:08:35;;;;;;;;;;;10.10;99.90;;;;;;6119723;23;19917;-81
2022/09/26 04:11:03;;;;;;;;;;;10.10;99.90;;;;;;6118951;23;20254;-80
2022/09/26 04:13:30;;;;;;;;;;;10.10;99.90;;;;;;6119588;23;19958;-80
2022/09/26 04:16:18;;;;;;;;;;;10.10;99.90;;;;;;6115331;23;19949;-80
2022/09/26 04:18:45;;;;;;;;;;;10.00;99.70;;;;;;6119433;23;19988;-81
2022/09/26 04:21:15;;;;;;;;;;;9.90;99.60;;;;;;6094763;23;19961;-80
2022/09/26 04:23:43;;;;;;;;;;;9.90;99.70;;;;;;6119661;23;19948;-80
2022/09/26 04:26:14;;;;;;;;;;;9.80;99.80;;;;;;6118868;23;19936;-80
2022/09/26 04:28:49;;;;;;;;;;;9.70;99.90;;;;;;6118350;23;19921;-81
2022/09/26 04:31:16;;;;;;;;;;;9.70;99.90;;;;;;6119167;23;19966;-80
2022/09/26 04:33:44;;;;;;;;;;;9.80;99.90;;;;;;6119352;23;19925;-81
2022/09/26 04:36:11;;;;;;;;;;;9.80;99.90;;;;;;6118845;23;19980;-80
2022/09/26 04:38:38;;;;;;;;;;;9.90;99.90;;;;;;6119616;23;19952;-80
2022/09/26 04:41:06;;;;;;;;;;;9.90;99.90;;;;;;6118814;23;19916;-81
2022/09/26 04:43:33;;;;;;;;;;;10.00;99.90;;;;;;6119336;23;19924;-80
2022/09/26 04:46:00;;;;;;;;;;;10.10;99.90;;;;;;6118865;23;19917;-80
2022/09/26 04:48:27;;;;;;;;;;;10.10;99.90;;;;;;6119115;23;20254;-80
2022/09/26 04:50:54;;;;;;;;;;;10.00;99.90;;;;;;6118817;23;19921;-80
2022/09/26 04:53:21;;;;;;;;;;;10.00;99.90;;;;;;6096331;23;19917;-80
2022/09/26 04:55:48;;;;;;;;;;;9.90;99.90;;;;;;6119390;23;20262;-81
2022/09/26 04:58:15;;;;;;;;;;;9.90;99.90;;;;;;6095706;23;19917;-80
2022/09/26 05:00:44;;;;;;;;;;;10.20;99.90;;;;;;6119124;23;19921;-81
2022/09/26 05:03:13;;;;;;;;;;;10.70;99.90;;;;;;6117942;23;19945;-80
2022/09/26 05:05:42;;;;;;;;;;;10.90;99.90;;;;;;6119026;23;20322;-80
2022/09/26 05:08:09;;;;;;;;;;;10.90;99.50;;;;;;6118586;23;19917;-80
2022/09/26 05:10:36;;;;;;;;;;;10.90;99.40;;;;;;6094915;23;19984;-80
2022/09/26 05:13:03;;;;;;;;;;;10.80;98.80;;;;;;6118442;23;19917;-81
2022/09/26 05:15:30;;;;;;;;;;;10.50;99.20;;;;;;6118875;23;19992;-81
2022/09/26 05:17:58;;;;;;;;;;;10.40;99.30;;;;;;6117874;23;19944;-81
2022/09/26 05:20:30;;;;;;;;;;;10.40;99.00;;;;;;6095171;23;19917;-81
2022/09/26 05:22:57;;;;;;;;;;;10.20;99.20;;;;;;6118384;23;19921;-80
2022/09/26 05:28:09;;;;;;;;;;;10.20;99.40;;;;;;6095488;23;19917;-81
2022/09/26 05:30:36;;;;;;;;;;;10.20;99.50;;;;;;6118874;23;19917;-81
2022/09/26 05:33:04;;;;;;;;;;;10.10;99.90;;;;;;6118558;23;19988;-81
2022/09/26 05:35:33;;;;;;;;;;;10.00;99.90;;;;;;6119120;23;19917;-81
2022/09/26 05:38:00;;;;;;;;;;;10.10;99.90;;;;;;6118052;23;19917;-81
2022/09/26 05:43:13;;;;;;;;;;;10.10;99.70;;;;;;6095130;23;19948;-80
2022/09/26 05:45:40;;;;;;;;;;;10.10;99.90;;;;;;6118884;23;19939;-80
2022/09/26 05:48:06;;;;;;;;;;;10.10;99.90;;;;;;6117987;23;19964;-80
2022/09/26 05:50:33;;;;;;;;;;;10.10;99.90;;;;;;6118322;23;19925;-80
2022/09/26 05:53:01;;;;;;;;;;;10.10;99.90;;;;;;6117374;23;19956;-81
2022/09/26 05:55:28;;;;;;;;;;;10.00;99.90;;;;;;6118122;23;20325;-80
2022/09/26 05:57:59;;;;;;;;;;;10.10;99.90;;;;;;6118221;23;20327;-80
2022/09/26 06:00:26;;;;;;;;;;;10.10;99.90;;;;;;6093858;23;19988;-80
2022/09/26 06:02:57;;;;;;;;;;;10.10;99.90;;;;;;6118702;23;19949;-80
2022/09/26 06:05:24;;;;;;;;;;;10.20;99.90;;;;;;6118050;23;19917;-80
2022/09/26 06:07:51;;;;;;;;;;;10.10;99.90;;;;;;6094842;23;19951;-80
2022/09/26 06:10:18;;;;;;;;;;;10.20;99.90;;;;;;6117801;23;19991;-80
2022/09/26 06:12:45;;;;;;;;;;;10.10;99.90;;;;;;6118821;23;19992;-80
2022/09/26 06:15:16;;;;;;;;;;;10.20;99.90;;;;;;6095103;23;20026;-80
2022/09/26 06:17:44;;;;;;;;;;;10.20;99.90;;;;;;6094315;23;19921;-80
2022/09/26 06:20:11;;;;;;;;;;;10.20;99.90;;;;;;6117939;23;19988;-80
2022/09/26 06:22:42;;;;;;;;;;;10.20;99.90;;;;;;6095984;23;20014;-80
2022/09/26 06:25:09;;;;;;;;;;;10.30;99.90;;;;;;6093543;23;19949;-80
2022/09/26 06:27:37;;;;;;;;;;;10.20;99.90;;;;;;6118486;23;19927;-80
2022/09/26 06:30:05;;;;;;;;;;;10.30;99.90;;;;;;6118298;23;19921;-80
2022/09/26 06:32:32;;;;;;;;;;;10.30;99.90;;;;;;6118875;23;19917;-80
2022/09/26 06:34:58;;;;;;;;;;;10.30;99.90;;;;;;6095768;23;19941;-80
2022/09/26 06:37:25;;;;;;;;;;;10.40;99.90;;;;;;6117761;23;19953;-80
2022/09/26 06:39:52;;;;;;;;;;;10.50;99.90;;;;;;6118672;23;19918;-80
2022/09/26 06:42:24;;;;;;;;;;;10.50;99.90;;;;;;6116519;23;19921;-80
2022/09/26 06:44:51;;;;;;;;;;;10.60;99.90;;;;;;6118876;23;20440;-80
2022/09/26 06:47:18;;;;;;;;;;;10.70;99.90;;;;;;6117980;23;19918;-80
2022/09/26 06:49:45;;;;;;;;;;;10.80;99.90;;;;;;6118435;23;20395;-80
2022/09/26 06:52:12;;;;;;;;;;;10.90;99.90;;;;;;6117719;23;19933;-80
2022/09/26 06:54:40;;;;;;;;;;;11.00;99.90;;;;;;6120251;23;20410;-80
2022/09/26 06:57:06;;;;;;;;;;;11.20;99.90;;;;;;6119923;23;19929;-80
2022/09/26 06:59:39;;;;;;;;;;;11.20;99.90;;;;;;6119036;23;19993;-80
2022/09/26 07:02:07;;;;;;;;;;;11.40;99.90;;;;;;6119412;23;20000;-80
2022/09/26 07:04:34;;;;;;;;;;;11.50;99.90;;;;;;6120179;23;19939;-80
2022/09/26 07:07:01;;;;;;;;;;;11.60;99.90;;;;;;6120106;23;20251;-80
2022/09/26 07:09:28;;;;;;;;;;;11.80;99.90;;;;;;6119613;23;19917;-80
2022/09/26 07:11:54;;;;;;;;;;;12.00;99.90;;;;;;6119895;23;19944;-80
2022/09/26 07:14:40;;;;;;;;;;;12.20;99.90;;;;;;6084327;23;20334;-80
2022/09/26 07:17:11;;;;;;;;;;;12.40;99.70;;;;;;6120103;23;19921;-79
2022/09/26 07:19:38;;;;;;;;;;;12.60;99.20;;;;;;6119024;23;19921;-80
2022/09/26 07:22:05;;;;;;;;;;;12.80;98.50;;;;;;6095805;23;19944;-80
2022/09/26 07:24:33;;;;;;;;;;;13.00;97.80;;;;;;6118707;23;19997;-80
2022/09/26 07:27:00;;;;;;;;;;;13.20;97.50;;;;;;6120176;23;19944;-80
2022/09/26 07:29:27;;;;;;;;;;;13.40;96.30;;;;;;6119467;23;19921;-80
2022/09/26 07:31:54;;;;;;;;;;;13.60;95.70;;;;;;6119919;23;19917;-80
2022/09/26 07:34:24;;;;;;;;;;;13.80;94.60;;;;;;6118820;23;19917;-80
2022/09/26 07:36:51;;;;;;;;;;;13.90;93.90;;;;;;6119726;23;20339;-80
2022/09/26 07:39:18;;;;;;;;;;;14.10;93.50;;;;;;6118950;23;19948;-80
2022/09/26 07:41:45;;;;;;;;;;;14.20;92.90;;;;;;6120251;23;19917;-80
2022/09/26 07:44:13;;;;;;;;;;;14.30;92.00;;;;;;6095624;23;19960;-80
2022/09/26 07:52:31;;;;;;;;;;;14.80;90.90;;;;;;6096848;23;19917;-80
2022/09/26 07:54:58;;;;;;;;;;;15.00;89.90;;;;;;6118783;23;19948;-80
2022/09/26 07:57:25;;;;;;;;;;;15.10;85.20;;;;;;6120004;23;19917;-80
2022/09/26 07:59:53;;;;;;;;;;;15.30;82.60;;;;;;6118978;23;19955;-81
2022/09/26 08:02:24;;;;;;;;;;;15.50;83.20;;;;;;6119376;23;19921;-81
2022/09/26 08:04:53;;;;;;;;;;;15.60;80.30;;;;;;6118446;23;19921;-81
2022/09/26 08:07:25;;;;;;;;;;;15.80;79.20;;;;;;6121138;23;19937;-81
2022/09/26 08:09:53;;;;;;;;;;;15.80;78.60;;;;;;6119865;23;19921;-80
2022/09/26 08:12:19;;;;;;;;;;;15.90;81.00;;;;;;6122003;23;20172;-81
2022/09/26 08:14:50;;;;;;;;;;;16.10;80.30;;;;;;6124988;23;19917;-80
2022/09/26 08:17:16;;;;;;;;;;;16.30;77.60;;;;;;6129925;23;20355;-81
2022/09/26 08:19:43;;;;;;;;;;;16.50;76.90;;;;;;6118696;23;20317;-81
2022/09/26 08:22:10;;;;;;;;;;;16.70;74.00;;;;;;6095256;23;19917;-80
2022/09/26 08:24:43;;;;;;;;;;;16.90;72.90;;;;;;6118419;23;20004;-80
2022/09/26 08:27:09;;;;;;;;;;;16.80;71.40;;;;;;6119671;23;19945;-81
2022/09/26 08:29:36;;;;;;;;;;;16.90;71.00;;;;;;6119443;23;19941;-80
2022/09/26 08:32:03;;;;;;;;;;;17.10;71.30;;;;;;6140892;23;19908;-80
2022/09/26 08:34:34;;;;;;;;;;;17.20;68.90;;;;;;6143633;23;19909;-81
2022/09/26 08:37:00;;;;;;;;;;;17.50;68.60;;;;;;6140614;23;19902;-80
2022/09/26 08:39:27;;;;;;;;;;;17.60;65.30;;;;;;6142455;23;19905;-80
2022/09/26 08:42:04;;;;;;;;;;;17.70;66.00;;;;;;6142133;23;20042;-82
2022/09/26 08:44:54;;;;;;;;;;;17.60;66.20;;;;;;6144539;23;19901;-80
2022/09/26 08:47:22;;;;;;;;;;;17.80;67.00;;;;;;6143534;23;19917;-81
2022/09/26 08:49:58;;;;;;;;;;;17.90;64.50;;;;;;6143406;23;20347;-82
2022/09/26 08:52:28;;;;;;;;;;;17.80;65.10;;;;;;6143129;23;20216;-80
2022/09/26 08:54:56;;;;;;;;;;;17.90;64.40;;;;;;6121224;23;19968;-81
2022/09/26 08:57:23;;;;;;;;;;;18.20;65.00;;;;;;6143380;23;19917;-81
2022/09/26 08:59:51;;;;;;;;;;;18.40;62.70;;;;;;6144647;23;19925;-80
2022/09/26 09:02:24;;;;;;;;;;;18.50;61.60;;;;;;6143110;23;19905;-80
2022/09/26 09:05:04;;;;;;;;;;;18.60;59.10;;;;;;6143798;23;19917;-80
2022/09/26 09:07:30;;;;;;;;;;;18.60;59.20;;;;;;6143823;23;19901;-80
2022/09/26 09:10:00;;;;;;;;;;;18.80;58.40;;;;;;6144223;23;19908;-79
2022/09/26 09:12:27;;;;;;;;;;;18.90;57.50;;;;;;6142567;23;19925;-80
2022/09/26 09:15:13;;;;;;;;;;;19.10;57.50;;;;;;6137686;23;19905;-81
2022/09/26 09:17:57;;;;;;;;;;;19.20;54.40;;;;;;6141930;23;20333;-81
2022/09/26 09:20:24;;;;;;;;;;;19.30;54.30;;;;;;6119603;23;19924;-80
2022/09/26 09:23:09;;;;;;;;;;;19.20;53.00;;;;;;6143246;23;19936;-79
2022/09/26 09:25:41;;;;;;;;;;;19.30;52.50;;;;;;6144393;23;19917;-81
2022/09/26 09:28:20;;;;;;;;;;;19.60;52.70;;;;;;6143990;23;20258;-81
2022/09/26 09:30:49;;;;;;;;;;;19.80;51.60;;;;;;6143349;23;19917;-80
2022/09/26 09:33:20;;;;;;;;;;;19.90;57.90;;;;;;6142613;23;19908;-79
2022/09/26 09:35:52;;;;;;;;;;;20.00;57.20;;;;;;6143318;23;19975;-81
2022/09/26 09:38:21;;;;;;;;;;;20.10;56.20;;;;;;6144402;23;19908;-81
2022/09/26 09:40:56;;;;;;;;;;;19.70;58.10;;;;;;6144509;23;19992;-81
2022/09/26 09:43:32;;;;;;;;;;;19.80;57.70;;;;;;6145209;23;19917;-82
2022/09/26 09:46:18;;;;;;;;;;;20.00;57.70;;;;;;6104907;23;20183;-80
2022/09/26 09:48:46;;;;;;;;;;;20.20;54.60;;;;;;6092542;23;19949;-80
2022/09/26 09:51:39;;;;;;;;;;;20.40;55.20;;;;;;6091604;23;19937;-80
2022/09/26 09:54:26;;;;;;;;;;;20.20;54.90;;;;;;6083684;23;19944;-80
2022/09/26 09:56:52;;;;;;;;;;;20.30;53.90;;;;;;6111522;23;19921;-80
2022/09/26 09:59:42;;;;;;;;;;;20.30;54.00;;;;;;6145168;23;19908;-81
2022/09/26 10:02:09;;;;;;;;;;;20.50;56.00;;;;;;6120994;23;19902;-80
2022/09/26 10:04:41;;;;;;;;;;;20.50;54.20;;;;;;6144244;23;19917;-81
2022/09/26 10:07:08;;;;;;;;;;;20.60;53.80;;;;;;6143208;23;19908;-82
2022/09/26 10:09:40;;;;;;;;;;;20.50;51.50;;;;;;6144516;23;19917;-80
2022/09/26 10:12:11;;;;;;;;;;;20.60;55.20;;;;;;6143615;23;19924;-82
2022/09/26 10:14:44;;;;;;;;;;;20.80;55.30;;;;;;6115251;23;20209;-81
2022/09/26 10:17:13;;;;;;;;;;;20.70;55.30;;;;;;6138636;23;19921;-80
2022/09/26 10:19:41;;;;;;;;;;;20.90;58.10;;;;;;6138056;23;19932;-80
2022/09/26 10:22:16;;;;;;;;;;;20.90;57.40;;;;;;6134959;23;19944;-81
2022/09/26 10:24:44;;;;;;;;;;;20.60;59.50;;;;;;6139016;23;19918;-80
2022/09/26 10:27:22;;;;;;;;;;;20.80;61.50;;;;;;6137364;23;20333;-81
2022/09/26 10:29:58;;;;;;;;;;;20.80;59.60;;;;;;6142438;23;20254;-81
2022/09/26 10:32:25;;;;;;;;;;;20.80;61.40;;;;;;6143204;23;19923;-80
2022/09/26 10:35:25;;;;;;;;;;;20.80;58.40;;;;;;6117253;23;19924;-81
2022/09/26 10:37:54;;;;;;;;;;;20.90;60.40;;;;;;6086485;23;19921;-81
2022/09/26 10:40:44;;;;;;;;;;;20.80;62.50;;;;;;6142639;23;19917;-80
2022/09/26 10:43:29;;;;;;;;;;;20.70;60.70;;;;;;6138132;23;19941;-80
2022/09/26 10:46:05;;;;;;;;;;;21.00;60.80;;;;;;6115012;23;19941;-81
2022/09/26 10:48:46;;;;;;;;;;;21.00;60.40;;;;;;6136324;23;19921;-80
2022/09/26 10:51:36;;;;;;;;;;;21.20;59.10;;;;;;6138382;23;19918;-80
2022/09/26 10:54:10;;;;;;;;;;;21.60;59.00;;;;;;6109905;23;20291;-81
2022/09/26 10:56:39;;;;;;;;;;;21.60;57.80;;;;;;6139245;23;19923;-80
2022/09/26 10:59:08;;;;;;;;;;;21.90;58.10;;;;;;6138343;23;19924;-80
2022/09/26 11:01:41;;;;;;;;;;;22.10;58.00;;;;;;6139792;23;20350;-80
2022/09/26 11:07:06;;;;;;;;;;;22.00;56.40;;;;;;6115861;23;19921;-81
2022/09/26 11:09:34;;;;;;;;;;;22.00;57.60;;;;;;6134800;23;19917;-80
2022/09/26 11:12:22;;;;;;;;;;;21.70;56.60;;;;;;6140209;23;19952;-82
2022/09/26 11:14:55;;;;;;;;;;;21.70;57.90;;;;;;6086501;23;19917;-81
2022/09/26 11:17:38;;;;;;;;;;;22.10;56.70;;;;;;6135886;23;19944;-83
2022/09/26 11:20:08;;;;;;;;;;;22.20;55.60;;;;;;6136901;23;19921;-81
2022/09/26 11:22:43;;;;;;;;;;;22.10;55.10;;;;;;6112462;23;19937;-80
2022/09/26 11:25:13;;;;;;;;;;;22.00;53.00;;;;;;6134548;23;19933;-80
2022/09/26 11:27:46;;;;;;;;;;;22.10;53.10;;;;;;6134485;23;19988;-80
2022/09/26 11:30:19;;;;;;;;;;;22.20;53.20;;;;;;6132815;23;19966;-80
2022/09/26 11:32:47;;;;;;;;;;;22.10;51.40;;;;;;6142072;23;19921;-80
2022/09/26 11:35:28;;;;;;;;;;;22.20;52.30;;;;;;6139703;23;19917;-82
2022/09/26 11:38:04;;;;;;;;;;;22.60;52.80;;;;;;6140257;23;19991;-81
2022/09/26 11:40:51;;;;;;;;;;;22.50;51.60;;;;;;6117111;23;19925;-81
2022/09/26 11:43:29;;;;;;;;;;;22.40;50.60;;;;;;6107459;23;19901;-82
2022/09/26 11:46:14;;;;;;;;;;;22.30;49.00;;;;;;6140792;23;19917;-81
2022/09/26 11:48:59;;;;;;;;;;;22.40;50.40;;;;;;6141811;23;19921;-81
2022/09/26 11:51:26;;;;;;;;;;;22.60;50.50;;;;;;6141494;23;19901;-81
2022/09/26 11:54:01;;;;;;;;;;;22.80;47.60;;;;;;6142337;23;19928;-82
2022/09/26 11:56:46;;;;;;;;;;;22.90;48.20;;;;;;6115993;23;19917;-81
2022/09/26 11:59:29;;;;;;;;;;;23.00;48.90;;;;;;6140564;23;19901;-81
2022/09/26 12:02:14;;;;;;;;;;;23.10;47.50;;;;;;6140663;23;19948;-81
2022/09/26 12:04:53;;;;;;;;;;;22.90;47.90;;;;;;6140563;23;19925;-81
2022/09/26 12:07:46;;;;;;;;;;;22.90;46.20;;;;;;6138075;23;20249;-80
2022/09/26 12:10:27;;;;;;;;;;;22.60;48.10;;;;;;6102907;23;20323;-80
2022/09/26 12:13:09;;;;;;;;;;;22.60;49.50;;;;;;6135085;23;19917;-80
2022/09/26 12:15:53;;;;;;;;;;;22.70;46.50;;;;;;6109684;23;19917;-80
2022/09/26 12:18:27;;;;;;;;;;;22.90;46.80;;;;;;6131203;23;19924;-80
2022/09/26 12:21:09;;;;;;;;;;;23.00;46.40;;;;;;6108221;23;19917;-80
2022/09/26 12:23:40;;;;;;;;;;;22.80;46.30;;;;;;6120798;23;19917;-80
2022/09/26 12:26:15;;;;;;;;;;;22.80;45.80;;;;;;6132371;23;19996;-80
2022/09/26 12:28:45;;;;;;;;;;;22.60;46.20;;;;;;6138088;23;19917;-80
2022/09/26 12:31:19;;;;;;;;;;;22.40;45.10;;;;;;6140041;23;19931;-81
2022/09/26 12:33:57;;;;;;;;;;;22.40;47.30;;;;;;6137503;23;19941;-79
2022/09/26 12:36:30;;;;;;;;;;;22.50;46.70;;;;;;6135308;23;19944;-79
2022/09/26 12:39:00;;;;;;;;;;;22.60;47.00;;;;;;6139639;23;19928;-80
2022/09/26 12:41:29;;;;;;;;;;;22.80;45.00;;;;;;6137602;23;19953;-82
2022/09/26 12:44:18;;;;;;;;;;;22.90;44.20;;;;;;6136326;23;19917;-80
2022/09/26 12:46:50;;;;;;;;;;;22.90;43.80;;;;;;6108319;23;19917;-81
2022/09/26 12:49:36;;;;;;;;;;;22.70;46.50;;;;;;6115548;23;19941;-80
2022/09/26 12:52:10;;;;;;;;;;;22.70;45.60;;;;;;6139481;23;19917;-80
2022/09/26 12:54:50;;;;;;;;;;;22.90;45.50;;;;;;6138064;23;20354;-81
2022/09/26 12:57:17;;;;;;;;;;;22.90;45.40;;;;;;6139081;23;19921;-80
2022/09/26 13:00:09;;;;;;;;;;;23.00;45.60;;;;;;6138739;23;19905;-80
2022/09/26 13:02:36;;;;;;;;;;;23.00;46.00;;;;;;6140512;23;19917;-80
2022/09/26 13:05:15;;;;;;;;;;;23.30;46.10;;;;;;6138740;23;19918;-79
2022/09/26 13:08:01;;;;;;;;;;;23.20;47.00;;;;;;6138936;23;19967;-80
2022/09/26 13:10:33;;;;;;;;;;;23.10;46.10;;;;;;6118174;23;20346;-80
2022/09/26 13:13:01;;;;;;;;;;;23.10;45.70;;;;;;6138385;23;19925;-80
2022/09/26 13:15:34;;;;;;;;;;;23.30;46.10;;;;;;6118135;23;19933;-80
2022/09/26 13:18:04;;;;;;;;;;;23.40;45.50;;;;;;6141373;23;19928;-80
2022/09/26 13:20:35;;;;;;;;;;;23.50;45.50;;;;;;6118210;23;20251;-80
2022/09/26 13:23:12;;;;;;;;;;;23.80;44.00;;;;;;6117354;23;19928;-81
2022/09/26 13:25:46;;;;;;;;;;;23.60;44.90;;;;;;6143762;23;20038;-80
2022/09/26 13:28:20;;;;;;;;;;;23.80;44.30;;;;;;6142061;23;19901;-80
2022/09/26 13:30:53;;;;;;;;;;;23.90;43.50;;;;;;6141233;23;19921;-79
2022/09/26 13:33:32;;;;;;;;;;;24.20;41.90;;;;;;6139800;23;20219;-79
2022/09/26 13:36:00;;;;;;;;;;;24.00;42.10;;;;;;6139209;23;19936;-79
2022/09/26 13:38:46;;;;;;;;;;;24.20;43.10;;;;;;6140741;23;19928;-80
2022/09/26 13:41:18;;;;;;;;;;;24.20;42.00;;;;;;6140409;23;19921;-81
2022/09/26 13:43:52;;;;;;;;;;;24.40;41.40;;;;;;6140322;23;19921;-80
2022/09/26 13:46:31;;;;;;;;;;;24.60;40.00;;;;;;6140940;23;19924;-79
2022/09/26 13:49:01;;;;;;;;;;;24.40;41.30;;;;;;6142505;23;19901;-80
2022/09/26 13:51:39;;;;;;;;;;;24.00;42.20;;;;;;6142446;23;19924;-79
2022/09/26 13:54:15;;;;;;;;;;;23.40;42.90;;;;;;6138869;23;19917;-80
2022/09/26 13:56:46;;;;;;;;;;;23.20;43.10;;;;;;6136334;23;20254;-80
2022/09/26 13:59:14;;;;;;;;;;;23.10;41.70;;;;;;6141937;23;19909;-80
2022/09/26 14:02:00;;;;;;;;;;;22.90;42.90;;;;;;6141740;23;19918;-80
2022/09/26 14:04:33;;;;;;;;;;;22.70;43.80;;;;;;6137892;23;19901;-81
2022/09/26 14:10:15;;;;;;;;;;;23.30;41.80;;;;;;6121321;23;19924;-80
2022/09/26 14:13:14;;;;;;;;;;;23.60;42.60;;;;;;6107726;23;19909;-80
2022/09/26 14:15:47;;;;;;;;;;;23.60;41.00;;;;;;6087058;23;19908;-81
2022/09/26 14:18:33;;;;;;;;;;;23.40;41.90;;;;;;6144011;23;19901;-82
2022/09/26 14:21:13;;;;;;;;;;;23.30;42.50;;;;;;6144474;23;19901;-81
2022/09/26 14:23:41;;;;;;;;;;;23.10;43.70;;;;;;6119281;23;19908;-80
2022/09/26 14:26:27;;;;;;;;;;;22.80;42.70;;;;;;6144978;23;19901;-81
2022/09/26 14:28:54;;;;;;;;;;;22.60;43.70;;;;;;6143453;23;19921;-81
2022/09/26 14:31:24;;;;;;;;;;;22.70;45.00;;;;;;6143897;23;19908;-81
2022/09/26 14:34:09;;;;;;;;;;;22.40;42.70;;;;;;6141780;23;19917;-80
2022/09/26 14:36:36;;;;;;;;;;;22.40;43.80;;;;;;6120066;23;19992;-81
2022/09/26 14:39:04;;;;;;;;;;;22.50;44.90;;;;;;6114436;23;20015;-80
2022/09/26 14:41:32;;;;;;;;;;;22.60;45.60;;;;;;6141338;23;19944;-80
2022/09/26 14:44:03;;;;;;;;;;;22.50;43.90;;;;;;6139440;23;19917;-77
2022/09/26 14:46:31;;;;;;;;;;;22.60;43.30;;;;;;6140975;23;19940;-80
2022/09/26 14:49:03;;;;;;;;;;;22.60;43.30;;;;;;6139607;23;19917;-81
2022/09/26 14:51:31;;;;;;;;;;;22.50;44.60;;;;;;6143844;23;19901;-81
2022/09/26 14:54:00;;;;;;;;;;;22.60;45.20;;;;;;6120599;23;19925;-80
2022/09/26 14:56:28;;;;;;;;;;;22.50;45.50;;;;;;6143214;23;19921;-80
2022/09/26 14:59:13;;;;;;;;;;;22.50;45.60;;;;;;6141328;23;19917;-80
2022/09/26 15:01:41;;;;;;;;;;;22.40;45.80;;;;;;6143153;23;19921;-82
2022/09/26 15:04:17;;;;;;;;;;;22.40;46.30;;;;;;6144704;23;19907;-79
2022/09/26 15:06:46;;;;;;;;;;;22.40;46.20;;;;;;6143106;23;19921;-81